createdAt,value
2023-01-13T00:01:09.020Z,0.85
2023-01-13T00:03:37.948Z,0.77
2023-01-13T00:06:07.832Z,0.65
2023-01-13T00:08:37.551Z,0.98
2023-01-13T00:11:05.837Z,1.00
2023-01-13T00:13:35.498Z,0.98
2023-01-13T00:16:05.981Z,0.52
2023-01-13T00:18:34.687Z,1.23
2023-01-13T00:21:03.841Z,0.57
2023-01-13T00:23:34.454Z,1.05
2023-01-13T00:26:07.046Z,0.93
2023-01-13T00:28:35.450Z,1.38
2023-01-13T00:31:07.279Z,0.38
2023-01-13T00:33:35.807Z,0.73
2023-01-13T00:36:05.806Z,1.40
2023-01-13T00:38:35.749Z,0.93
2023-01-13T00:41:07.567Z,0.75
2023-01-13T00:43:37.116Z,1.27
2023-01-13T00:46:07.218Z,0.25
2023-01-13T00:48:36.001Z,1.02
2023-01-13T00:51:06.521Z,1.02
2023-01-13T00:53:40.972Z,0.52
2023-01-13T00:56:15.075Z,0.82
2023-01-13T00:58:44.433Z,0.65
2023-01-13T01:01:15.171Z,0.90
2023-01-13T01:03:43.506Z,0.60
2023-01-13T01:06:14.300Z,1.30
2023-01-13T01:08:43.488Z,1.63
2023-01-13T01:11:15.399Z,0.70
2023-01-13T01:13:43.792Z,1.08
2023-01-13T01:16:13.911Z,1.05
2023-01-13T01:18:44.499Z,0.93
2023-01-13T01:21:13.344Z,1.05
2023-01-13T01:23:42.655Z,0.75
2023-01-13T01:26:14.975Z,1.30
2023-01-13T01:28:44.334Z,0.77
2023-01-13T01:31:15.110Z,1.30
2023-01-13T01:33:43.433Z,0.65
2023-01-13T01:36:13.248Z,0.93
2023-01-13T01:38:41.626Z,0.35
2023-01-13T01:41:13.705Z,1.70
2023-01-13T01:44:07.456Z,0.82
2023-01-13T01:46:38.510Z,0.88
2023-01-13T01:49:13.906Z,0.68
2023-01-13T01:51:45.742Z,0.68
2023-01-13T01:54:19.549Z,0.90
2023-01-13T01:59:18.136Z,0.10
2023-01-13T02:01:47.139Z,0.47
2023-01-13T02:04:18.579Z,1.30
2023-01-13T02:06:48.901Z,0.60
2023-01-13T02:09:18.348Z,0.77
2023-01-13T02:12:03.891Z,0.90
2023-01-13T02:14:35.210Z,1.60
2023-01-13T02:17:19.483Z,1.10
2023-01-13T02:20:20.253Z,0.75
2023-01-13T02:23:34.712Z,1.23
2023-01-13T02:26:26.750Z,0.52
2023-01-13T02:29:28.454Z,0.77
2023-01-13T02:32:03.557Z,1.08
2023-01-13T02:34:39.421Z,1.17
2023-01-13T02:37:15.069Z,0.70
2023-01-13T02:39:49.879Z,0.60
2023-01-13T02:42:38.999Z,0.93
2023-01-13T02:45:13.560Z,1.35
2023-01-13T02:47:47.508Z,0.22
2023-01-13T02:50:19.067Z,0.77
2023-01-13T02:52:51.887Z,1.05
2023-01-13T02:55:25.817Z,0.75
2023-01-13T02:57:56.699Z,0.43
2023-01-13T03:00:25.438Z,0.47
2023-01-13T03:02:55.032Z,0.20
2023-01-13T03:05:24.094Z,0.65
2023-01-13T03:08:17.899Z,0.93
2023-01-13T03:11:02.416Z,1.13
2023-01-13T03:13:54.852Z,0.93
2023-01-13T03:16:31.089Z,0.68
2023-01-13T03:19:14.641Z,0.77
2023-01-13T03:21:52.559Z,0.60
2023-01-13T03:24:27.473Z,0.52
2023-01-13T03:27:01.605Z,0.73
2023-01-13T03:29:35.790Z,0.82
2023-01-13T03:32:08.183Z,0.70
2023-01-13T03:34:44.244Z,0.55
2023-01-13T03:37:15.042Z,0.73
2023-01-13T03:39:49.059Z,0.73
2023-01-13T03:42:21.685Z,1.20
2023-01-13T03:44:55.921Z,0.63
2023-01-13T03:47:29.117Z,0.50
2023-01-13T03:50:05.494Z,0.50
2023-01-13T03:52:37.757Z,0.60
2023-01-13T03:55:11.889Z,0.60
2023-01-13T03:57:48.779Z,0.30
2023-01-13T04:00:18.225Z,0.85
2023-01-13T04:02:52.313Z,0.70
2023-01-13T04:05:22.461Z,0.35
2023-01-13T04:07:56.242Z,0.38
2023-01-13T04:13:01.753Z,0.93
2023-01-13T04:15:33.710Z,0.63
2023-01-13T04:18:13.081Z,0.30
2023-01-13T04:20:43.510Z,0.28
2023-01-13T04:23:13.613Z,0.22
2023-01-13T04:25:42.361Z,0.75
2023-01-13T04:28:11.544Z,1.00
2023-01-13T04:30:40.206Z,0.38
2023-01-13T04:33:08.754Z,0.60
2023-01-13T04:35:38.178Z,0.57
2023-01-13T04:38:09.039Z,0.63
2023-01-13T04:40:37.560Z,0.22
2023-01-13T04:43:06.210Z,0.98
2023-01-13T04:45:34.670Z,0.57
2023-01-13T04:48:03.159Z,0.50
2023-01-13T04:50:31.383Z,0.50
2023-01-13T04:53:00.489Z,0.20
2023-01-13T04:55:30.030Z,0.73
2023-01-13T04:58:03.085Z,0.20
2023-01-13T05:00:32.094Z,0.15
2023-01-13T05:03:00.579Z,0.45
2023-01-13T05:05:29.859Z,0.40
2023-01-13T05:07:58.103Z,1.10
2023-01-13T05:10:26.520Z,0.20
2023-01-13T05:13:13.529Z,0.80
2023-01-13T05:16:00.301Z,0.40
2023-01-13T05:18:30.937Z,0.47
2023-01-13T05:20:59.156Z,0.43
2023-01-13T05:23:44.718Z,0.17
2023-01-13T05:26:12.862Z,0.20
2023-01-13T05:28:42.383Z,0.63
2023-01-13T05:31:12.248Z,0.15
2023-01-13T05:33:40.586Z,0.30
2023-01-13T05:36:09.539Z,0.40
2023-01-13T05:38:37.741Z,0.57
2023-01-13T05:41:23.409Z,0.40
2023-01-13T05:43:52.951Z,0.32
2023-01-13T05:46:21.360Z,0.50
2023-01-13T05:48:49.539Z,0.20
2023-01-13T05:51:17.717Z,0.30
2023-01-13T05:53:45.954Z,0.45
2023-01-13T05:56:14.204Z,0.80
2023-01-13T05:58:42.406Z,0.30
2023-01-13T06:01:11.912Z,0.35
2023-01-13T06:03:40.181Z,0.00
2023-01-13T06:06:09.182Z,0.20
2023-01-13T06:08:39.523Z,0.60
2023-01-13T06:11:08.267Z,0.10
2023-01-13T06:13:36.547Z,0.03
2023-01-13T06:16:04.888Z,0.30
2023-01-13T06:18:34.360Z,0.20
2023-01-13T06:21:02.568Z,0.20
2023-01-13T06:23:35.044Z,0.95
2023-01-13T06:26:11.115Z,0.30
2023-01-13T06:28:39.349Z,0.50
2023-01-13T06:31:09.518Z,0.20
2023-01-13T06:33:42.144Z,0.30
2023-01-13T06:36:17.352Z,0.00
2023-01-13T06:38:48.943Z,0.10
2023-01-13T06:41:18.009Z,0.52
2023-01-13T06:43:45.169Z,0.52
2023-01-13T06:46:13.438Z,0.20
2023-01-13T06:48:42.974Z,0.30
2023-01-13T06:51:11.211Z,0.40
2023-01-13T06:53:39.458Z,0.20
2023-01-13T06:56:08.262Z,0.38
2023-01-13T06:58:36.523Z,0.38
2023-01-13T07:01:04.939Z,0.38
2023-01-13T07:03:33.191Z,0.30
2023-01-13T07:06:02.875Z,0.65
2023-01-13T07:08:31.138Z,0.10
2023-01-13T07:10:59.579Z,0.30
2023-01-13T07:13:45.216Z,0.57
2023-01-13T07:16:14.037Z,0.05
2023-01-13T07:18:42.165Z,0.15
2023-01-13T07:21:18.811Z,0.40
2023-01-13T07:23:48.532Z,0.17
2023-01-13T07:26:17.334Z,0.45
2023-01-13T07:28:45.602Z,0.30
2023-01-13T07:31:16.123Z,0.30
2023-01-13T07:33:44.579Z,0.35
2023-01-13T07:36:14.516Z,0.45
2023-01-13T07:38:44.553Z,0.08
2023-01-13T07:41:31.991Z,0.60
2023-01-13T07:44:04.960Z,0.15
2023-01-13T07:46:33.691Z,0.40
2023-01-13T07:49:01.957Z,0.80
2023-01-13T07:51:31.801Z,0.38
2023-01-13T07:53:59.944Z,0.50
2023-01-13T07:56:28.239Z,0.30
2023-01-13T07:58:56.467Z,0.50
2023-01-13T08:01:24.835Z,0.30
2023-01-13T08:03:53.116Z,0.20
2023-01-13T08:06:21.494Z,0.40
2023-01-13T08:08:51.102Z,0.32
2023-01-13T08:11:22.093Z,0.25
2023-01-13T08:13:51.760Z,0.30
2023-01-13T08:16:20.240Z,0.35
2023-01-13T08:18:48.713Z,0.38
2023-01-13T08:21:17.599Z,0.10
2023-01-13T08:23:46.585Z,0.60
2023-01-13T08:26:18.451Z,0.40
2023-01-13T08:28:47.337Z,0.65
2023-01-13T08:31:20.108Z,0.30
2023-01-13T08:33:48.703Z,0.45
2023-01-13T08:36:18.589Z,0.17
2023-01-13T08:38:47.096Z,0.52
2023-01-13T08:41:38.822Z,0.47
2023-01-13T08:44:09.356Z,0.32
2023-01-13T08:46:38.038Z,0.77
2023-01-13T08:49:06.414Z,1.17
2023-01-13T08:51:35.095Z,1.33
2023-01-13T08:54:03.393Z,0.15
2023-01-13T08:56:35.441Z,0.17
2023-01-13T08:59:04.465Z,0.28
2023-01-13T09:01:34.192Z,0.73
2023-01-13T09:04:02.640Z,0.13
2023-01-13T09:06:31.022Z,0.60
2023-01-13T09:08:59.731Z,0.60
2023-01-13T09:11:52.411Z,0.40
2023-01-13T09:14:21.603Z,0.45
2023-01-13T09:16:49.841Z,0.35
2023-01-13T09:19:18.235Z,0.30
2023-01-13T09:21:46.614Z,0.70
2023-01-13T09:24:15.006Z,0.20
2023-01-13T09:26:44.483Z,0.30
2023-01-13T09:29:12.921Z,0.22
2023-01-13T09:31:44.007Z,0.20
2023-01-13T09:34:33.930Z,0.32
2023-01-13T09:37:03.475Z,0.22
2023-01-13T09:39:32.951Z,0.75
2023-01-13T09:42:30.446Z,0.45
2023-01-13T09:45:05.761Z,0.25
2023-01-13T09:47:41.295Z,0.68
2023-01-13T09:50:30.782Z,0.25
2023-01-13T09:53:00.727Z,0.35
2023-01-13T09:55:34.770Z,0.63
2023-01-13T09:58:12.575Z,0.20
2023-01-13T10:00:47.233Z,0.45
2023-01-13T10:03:22.664Z,0.75
2023-01-13T10:05:57.934Z,0.30
2023-01-13T10:08:29.521Z,0.30
2023-01-13T10:11:00.487Z,0.28
2023-01-13T10:13:31.548Z,0.73
2023-01-13T10:16:14.225Z,0.13
2023-01-13T10:18:55.238Z,0.20
2023-01-13T10:21:45.733Z,0.50
2023-01-13T10:24:25.293Z,0.17
2023-01-13T10:27:04.388Z,0.60
2023-01-13T10:29:34.752Z,0.00
2023-01-13T10:32:03.032Z,0.35
2023-01-13T10:34:31.614Z,0.35
2023-01-13T10:37:03.318Z,0.35
2023-01-13T10:39:41.740Z,0.80
2023-01-13T10:42:15.396Z,0.32
2023-01-13T10:44:53.021Z,0.38
2023-01-13T10:47:25.181Z,0.65
2023-01-13T10:50:22.392Z,0.70
2023-01-13T10:53:00.172Z,0.98
2023-01-13T10:55:32.055Z,0.55
2023-01-13T10:58:13.500Z,0.17
2023-01-13T11:00:43.275Z,0.30
2023-01-13T11:03:22.896Z,0.68
2023-01-13T11:05:54.119Z,0.45
2023-01-13T11:08:25.223Z,0.57
2023-01-13T11:10:55.855Z,0.70
2023-01-13T11:13:33.125Z,0.52
2023-01-13T11:16:07.037Z,0.20
2023-01-13T11:18:51.983Z,0.40
2023-01-13T11:21:25.748Z,0.77
2023-01-13T11:24:05.634Z,0.17
2023-01-13T11:26:44.920Z,0.65
2023-01-13T11:29:19.545Z,0.60
2023-01-13T11:31:52.545Z,0.47
2023-01-13T11:34:29.727Z,0.20
2023-01-13T11:37:01.618Z,0.28
2023-01-13T11:39:43.122Z,0.52
2023-01-13T11:42:24.134Z,0.68
2023-01-13T11:45:03.867Z,0.25
2023-01-13T11:47:35.017Z,0.40
2023-01-13T11:50:03.754Z,0.38
2023-01-13T11:52:45.869Z,0.30
2023-01-13T11:55:33.676Z,0.45
2023-01-13T11:58:28.989Z,0.43
2023-01-13T12:01:07.927Z,0.22
2023-01-13T12:03:43.105Z,0.15
2023-01-13T12:06:21.100Z,0.80
2023-01-13T12:09:06.001Z,0.43
2023-01-13T12:12:01.868Z,0.15
2023-01-13T12:14:42.724Z,0.60
2023-01-13T12:17:23.464Z,0.32
2023-01-13T12:19:52.992Z,0.32
2023-01-13T12:22:27.185Z,0.38
2023-01-13T12:25:05.287Z,0.20
2023-01-13T12:27:42.969Z,0.20
2023-01-13T12:30:23.570Z,0.30
2023-01-13T12:32:55.913Z,0.10
2023-01-13T12:35:38.023Z,0.60
2023-01-13T12:38:14.032Z,0.40
2023-01-13T12:40:55.594Z,0.28
2023-01-13T12:43:43.510Z,0.45
2023-01-13T12:46:46.695Z,0.28
2023-01-13T12:49:23.474Z,0.35
2023-01-13T12:52:19.987Z,0.15
2023-01-13T12:55:14.772Z,0.80
2023-01-13T12:57:58.136Z,0.25
2023-01-13T13:00:33.171Z,0.30
2023-01-13T13:03:24.677Z,0.30
2023-01-13T13:05:58.905Z,0.40
2023-01-13T13:08:44.010Z,0.47
2023-01-13T13:12:00.668Z,0.13
2023-01-13T13:15:06.833Z,0.38
2023-01-13T13:17:46.304Z,0.38
2023-01-13T13:20:50.631Z,0.32
2023-01-13T13:23:48.017Z,0.25
2023-01-13T13:26:25.054Z,0.30
2023-01-13T13:29:07.501Z,0.80
2023-01-13T13:31:53.144Z,0.38
2023-01-13T13:34:31.485Z,0.70
2023-01-13T13:37:12.185Z,0.47
2023-01-13T13:39:58.451Z,0.57
2023-01-13T13:42:46.244Z,0.52
2023-01-13T13:45:37.377Z,0.47
2023-01-13T13:48:25.948Z,0.20
2023-01-13T13:51:01.812Z,0.00
2023-01-13T13:53:34.123Z,0.22
2023-01-13T13:56:07.974Z,0.40
2023-01-13T13:58:37.267Z,0.35
2023-01-13T14:01:07.228Z,0.15
2023-01-13T14:03:39.842Z,0.47
2023-01-13T14:06:09.057Z,0.40
2023-01-13T14:08:39.499Z,0.68
2023-01-13T14:11:26.992Z,0.63
2023-01-13T14:14:03.342Z,0.17
2023-01-13T14:16:32.715Z,0.70
2023-01-13T14:19:01.398Z,0.40
2023-01-13T14:21:30.922Z,0.55
2023-01-13T14:24:04.641Z,0.50
2023-01-13T14:29:03.417Z,1.02
2023-01-13T14:31:32.919Z,0.20
2023-01-13T14:34:32.962Z,0.43
2023-01-13T14:36:52.437Z,0.20
2023-01-13T14:39:35.215Z,0.52
2023-01-13T14:42:05.153Z,0.45
2023-01-13T14:44:36.023Z,0.52
2023-01-13T14:47:16.430Z,0.43
2023-01-13T14:49:58.868Z,0.52
2023-01-13T14:52:29.145Z,0.45
2023-01-13T14:55:22.280Z,0.68
2023-01-13T14:57:52.485Z,0.57
2023-01-13T15:00:24.589Z,0.20
2023-01-13T15:03:14.990Z,1.13
2023-01-13T15:05:49.313Z,0.17
2023-01-13T15:08:29.337Z,0.60
2023-01-13T15:11:00.970Z,0.52
2023-01-13T15:13:37.382Z,0.52
2023-01-13T15:16:07.945Z,0.10
2023-01-13T15:18:40.101Z,0.15
2023-01-13T15:21:09.326Z,0.22
2023-01-13T15:23:39.941Z,0.50
2023-01-13T15:26:19.992Z,0.70
2023-01-13T15:28:50.803Z,0.88
2023-01-13T15:31:19.767Z,0.40
2023-01-13T15:33:48.211Z,0.20
2023-01-13T15:36:22.441Z,0.82
2023-01-13T15:38:51.242Z,0.45
2023-01-13T15:41:39.877Z,0.45
2023-01-13T15:44:29.634Z,1.88
2023-01-13T15:46:59.564Z,1.33
2023-01-13T15:49:34.912Z,1.15
2023-01-13T15:52:04.407Z,1.08
2023-01-13T15:54:32.891Z,1.35
2023-01-13T15:57:01.295Z,0.88
2023-01-13T15:59:30.770Z,1.05
2023-01-13T16:01:59.079Z,0.98
2023-01-13T16:04:27.348Z,1.45
2023-01-13T16:06:55.686Z,1.27
2023-01-13T16:09:23.821Z,1.10
2023-01-13T16:11:52.101Z,1.65
2023-01-13T16:14:20.214Z,1.10
2023-01-13T16:16:49.743Z,1.73
2023-01-13T16:19:17.924Z,1.27
2023-01-13T16:21:46.386Z,0.90
2023-01-13T16:24:14.605Z,1.05
2023-01-13T16:26:42.879Z,1.92
2023-01-13T16:29:12.620Z,1.17
2023-01-13T16:31:41.054Z,1.30
2023-01-13T16:34:10.653Z,1.73
2023-01-13T16:36:38.984Z,0.75
2023-01-13T16:39:21.743Z,1.13
2023-01-13T16:41:50.003Z,1.15
2023-01-13T16:44:18.345Z,0.80
2023-01-13T16:46:47.645Z,1.05
2023-01-13T16:49:18.425Z,2.42
2023-01-13T16:51:46.772Z,0.90
2023-01-13T16:54:15.004Z,1.05
2023-01-13T16:56:43.271Z,0.80
2023-01-13T16:59:14.594Z,0.77
2023-01-13T17:01:45.064Z,1.25
2023-01-13T17:04:17.883Z,1.35
2023-01-13T17:06:52.979Z,1.00
2023-01-13T17:09:23.640Z,2.22
2023-01-13T17:11:51.861Z,1.60
2023-01-13T17:14:23.307Z,1.05
2023-01-13T17:16:53.104Z,1.00
2023-01-13T17:19:25.679Z,1.27
2023-01-13T17:21:54.167Z,1.15
2023-01-13T17:24:24.842Z,1.20
2023-01-13T17:26:57.394Z,1.75
2023-01-13T17:29:27.724Z,1.40
2023-01-13T17:31:56.462Z,2.03
2023-01-13T17:34:26.024Z,1.42
2023-01-13T17:36:54.415Z,1.60
2023-01-13T17:39:24.821Z,0.82
2023-01-13T17:41:55.965Z,1.35
2023-01-13T17:44:24.562Z,1.60
2023-01-13T17:46:52.651Z,1.45
2023-01-13T17:49:22.156Z,2.13
2023-01-13T17:51:53.046Z,1.42
2023-01-13T17:54:21.467Z,1.25
2023-01-13T17:56:49.632Z,2.80
2023-01-13T17:59:19.872Z,2.28
2023-01-13T18:01:48.277Z,2.40
2023-01-13T18:04:18.277Z,3.20
2023-01-13T18:06:46.611Z,1.50
2023-01-13T18:09:16.716Z,1.00
2023-01-13T18:11:46.523Z,2.08
2023-01-13T18:14:15.697Z,1.42
2023-01-13T18:16:44.327Z,1.90
2023-01-13T18:19:30.221Z,1.63
2023-01-13T18:22:15.833Z,2.58
2023-01-13T18:25:03.032Z,2.08
2023-01-13T18:27:33.949Z,1.63
2023-01-13T18:30:04.829Z,2.03
2023-01-13T18:32:34.073Z,0.98
2023-01-13T18:35:06.731Z,1.83
2023-01-13T18:37:38.632Z,1.87
2023-01-13T18:40:10.376Z,3.05
2023-01-13T18:42:56.479Z,2.65
2023-01-13T18:45:26.453Z,2.10
2023-01-13T18:47:57.172Z,1.92
2023-01-13T18:50:26.270Z,3.28
2023-01-13T18:52:54.642Z,2.88
2023-01-13T18:55:24.681Z,2.33
2023-01-13T18:57:53.682Z,1.88
2023-01-13T19:00:23.152Z,1.95
2023-01-13T19:05:35.794Z,1.60
2023-01-13T19:08:04.529Z,2.72
2023-01-13T19:10:34.113Z,3.85
2023-01-13T19:13:02.871Z,5.55
2023-01-13T19:15:31.656Z,4.05
2023-01-13T19:18:00.696Z,2.40
2023-01-13T19:20:29.026Z,3.33
2023-01-13T19:22:57.272Z,2.20
2023-01-13T19:25:25.545Z,3.03
2023-01-13T19:27:55.183Z,1.88
2023-01-13T19:30:23.306Z,1.90
2023-01-13T19:32:51.551Z,1.15
2023-01-13T19:35:20.205Z,1.42
2023-01-13T19:37:48.462Z,0.93
2023-01-13T19:40:17.312Z,0.63
2023-01-13T19:43:03.283Z,1.08
2023-01-13T19:45:35.354Z,1.58
2023-01-13T19:48:05.689Z,1.35
2023-01-13T19:50:37.497Z,1.13
2023-01-13T19:53:05.905Z,0.85
2023-01-13T19:55:34.238Z,1.63
2023-01-13T19:58:03.467Z,1.58
2023-01-13T20:00:33.397Z,1.35
2023-01-13T20:03:04.397Z,1.30
2023-01-13T20:05:32.973Z,2.28
2023-01-13T20:08:01.294Z,1.25
2023-01-13T20:10:31.438Z,1.48
2023-01-13T20:12:59.643Z,4.50
2023-01-13T20:15:28.052Z,3.95
2023-01-13T20:17:58.515Z,4.22
2023-01-13T20:20:27.542Z,2.63
2023-01-13T20:22:55.830Z,1.90
2023-01-13T20:25:24.250Z,2.30
2023-01-13T20:27:52.968Z,1.73
2023-01-13T20:30:21.412Z,2.15
2023-01-13T20:32:49.608Z,2.00
2023-01-13T20:35:19.397Z,3.03
2023-01-13T20:37:47.663Z,2.55
2023-01-13T20:40:18.446Z,1.20
2023-01-13T20:42:46.803Z,1.00
2023-01-13T20:45:20.841Z,1.00
2023-01-13T20:47:49.288Z,1.08
2023-01-13T20:50:19.436Z,1.20
2023-01-13T20:52:48.224Z,0.98
2023-01-13T20:55:16.792Z,1.30
2023-01-13T20:57:48.625Z,2.30
2023-01-13T21:00:17.762Z,1.52
2023-01-13T21:02:45.970Z,1.77
2023-01-13T21:05:14.523Z,1.40
2023-01-13T21:07:44.094Z,1.13
2023-01-13T21:10:12.531Z,1.40
2023-01-13T21:12:58.086Z,0.80
2023-01-13T21:15:27.508Z,1.52
2023-01-13T21:18:12.872Z,1.67
2023-01-13T21:20:41.274Z,1.50
2023-01-13T21:23:11.940Z,0.98
2023-01-13T21:25:40.695Z,1.27
2023-01-13T21:28:11.890Z,1.50
2023-01-13T21:30:40.885Z,1.20
2023-01-13T21:33:13.668Z,4.15
2023-01-13T21:35:42.656Z,1.58
2023-01-13T21:38:13.712Z,1.95
2023-01-13T21:40:42.063Z,1.95
2023-01-13T21:43:31.064Z,1.75
2023-01-13T21:46:16.722Z,1.60
2023-01-13T21:48:45.039Z,1.60
2023-01-13T21:51:13.230Z,2.15
2023-01-13T21:53:42.751Z,2.85
2023-01-13T21:56:10.909Z,1.85
2023-01-13T21:58:40.221Z,1.55
2023-01-13T22:01:09.797Z,1.40
2023-01-13T22:03:54.971Z,4.47
2023-01-13T22:06:23.434Z,3.15
2023-01-13T22:08:54.096Z,2.78
2023-01-13T22:11:22.771Z,2.03
2023-01-13T22:14:08.297Z,1.80
2023-01-13T22:16:39.574Z,1.63
2023-01-13T22:19:08.894Z,1.13
2023-01-13T22:21:37.678Z,1.48
2023-01-13T22:24:08.085Z,1.50
2023-01-13T22:26:36.441Z,1.67
2023-01-13T22:29:04.996Z,1.58
2023-01-13T22:31:33.425Z,1.00
2023-01-13T22:34:01.711Z,1.20
2023-01-13T22:36:30.010Z,0.60
2023-01-13T22:39:00.691Z,1.40
2023-01-13T22:41:30.407Z,1.63
2023-01-13T22:43:58.610Z,1.50
2023-01-13T22:46:26.940Z,1.70
2023-01-13T22:48:55.959Z,1.20
2023-01-13T22:51:26.601Z,1.60
2023-01-13T22:53:55.786Z,1.33
2023-01-13T22:56:25.780Z,0.90
2023-01-13T22:58:56.556Z,1.33
2023-01-13T23:01:25.633Z,1.08
2023-01-13T23:03:54.434Z,1.20
2023-01-13T23:06:24.679Z,1.42
2023-01-13T23:08:53.645Z,1.48
2023-01-13T23:11:24.727Z,0.82
2023-01-13T23:14:00.104Z,2.13
2023-01-13T23:16:30.692Z,1.15
2023-01-13T23:18:59.148Z,1.20
2023-01-13T23:21:30.095Z,0.88
2023-01-13T23:23:58.960Z,1.42
2023-01-13T23:26:28.269Z,1.15
2023-01-13T23:29:01.641Z,1.55
2023-01-13T23:31:30.079Z,1.30
2023-01-13T23:33:58.461Z,1.08
2023-01-13T23:36:28.097Z,2.45
2023-01-13T23:38:56.950Z,1.65
2023-01-13T23:41:26.895Z,1.35
2023-01-13T23:43:56.674Z,1.30
2023-01-13T23:46:27.416Z,0.88
2023-01-13T23:48:56.290Z,1.38
2023-01-13T23:51:26.219Z,1.30
2023-01-13T23:53:55.126Z,1.05
2023-01-13T23:56:25.513Z,1.20
2023-01-13T23:58:54.091Z,1.30
